createdAt,value
2022-07-27T00:01:07.815Z,1008.94
2022-07-27T00:04:15.278Z,1008.93
2022-07-27T00:07:23.564Z,1008.97
2022-07-27T00:10:31.372Z,1009.00
2022-07-27T00:13:38.820Z,1009.04
2022-07-27T00:16:46.415Z,1009.00
2022-07-27T00:19:54.438Z,1009.00
2022-07-27T00:23:01.973Z,1008.90
2022-07-27T00:26:10.275Z,1008.94
2022-07-27T00:29:17.831Z,1008.92
2022-07-27T00:32:21.330Z,1008.97
2022-07-27T00:35:29.610Z,1009.01
2022-07-27T00:38:37.151Z,1009.10
2022-07-27T00:41:45.693Z,1009.06
2022-07-27T00:44:54.145Z,1009.10
2022-07-27T00:48:01.665Z,1009.12
2022-07-27T00:51:09.659Z,1009.12
2022-07-27T00:54:17.416Z,1009.11
2022-07-27T00:57:25.333Z,1009.10
2022-07-27T01:00:33.646Z,1009.04
2022-07-27T01:03:41.645Z,1009.03
2022-07-27T01:06:49.829Z,1009.04
2022-07-27T01:09:57.750Z,1009.07
2022-07-27T01:13:06.387Z,1009.05
2022-07-27T01:16:10.240Z,1009.16
2022-07-27T01:19:18.234Z,1009.14
2022-07-27T01:22:26.605Z,1009.12
2022-07-27T01:25:34.554Z,1009.13
2022-07-27T01:28:42.387Z,1009.07
2022-07-27T01:31:50.810Z,1009.07
2022-07-27T01:34:58.888Z,1009.09
2022-07-27T01:38:07.353Z,1009.05
2022-07-27T01:41:15.709Z,1009.07
2022-07-27T01:44:23.206Z,1009.07
2022-07-27T01:47:31.343Z,1009.11
2022-07-27T01:50:39.538Z,1009.08
2022-07-27T01:53:47.531Z,1009.08
2022-07-27T01:56:55.622Z,1009.04
2022-07-27T02:00:03.823Z,1009.10
2022-07-27T02:03:11.997Z,1009.02
2022-07-27T02:06:20.475Z,1009.03
2022-07-27T02:09:28.484Z,1009.04
2022-07-27T02:12:36.625Z,1009.09
2022-07-27T02:15:44.933Z,1009.06
2022-07-27T02:18:53.011Z,1008.94
2022-07-27T02:22:00.940Z,1009.01
2022-07-27T02:25:08.718Z,1009.12
2022-07-27T02:28:16.992Z,1009.10
2022-07-27T02:31:24.437Z,1009.09
2022-07-27T02:34:32.714Z,1009.05
2022-07-27T02:37:40.675Z,1009.09
2022-07-27T02:40:48.185Z,1009.08
2022-07-27T02:43:56.457Z,1009.12
2022-07-27T02:47:04.217Z,1009.08
2022-07-27T02:50:11.787Z,1009.11
2022-07-27T02:53:20.263Z,1009.11
2022-07-27T02:56:28.320Z,1009.18
2022-07-27T02:59:36.273Z,1009.12
2022-07-27T03:02:44.760Z,1009.18
2022-07-27T03:05:52.428Z,1009.11
2022-07-27T03:09:01.204Z,1009.14
2022-07-27T03:12:09.436Z,1009.11
2022-07-27T03:15:16.927Z,1009.24
2022-07-27T03:18:25.204Z,1009.22
2022-07-27T03:21:32.964Z,1009.23
2022-07-27T03:24:40.716Z,1009.20
2022-07-27T03:27:49.069Z,1009.19
2022-07-27T03:30:57.059Z,1009.20
2022-07-27T03:34:04.889Z,1009.27
2022-07-27T03:37:15.268Z,1009.27
2022-07-27T03:40:23.373Z,1009.28
2022-07-27T03:43:31.456Z,1009.31
2022-07-27T03:46:39.051Z,1009.35
2022-07-27T03:49:47.400Z,1009.35
2022-07-27T03:52:55.304Z,1009.38
2022-07-27T03:56:03.405Z,1009.34
2022-07-27T03:59:12.078Z,1009.37
2022-07-27T04:02:20.262Z,1009.35
2022-07-27T04:05:29.404Z,1009.40
2022-07-27T04:08:38.188Z,1009.36
2022-07-27T04:11:50.966Z,1009.29
2022-07-27T04:14:49.351Z,1009.39
2022-07-27T04:17:58.048Z,1009.35
2022-07-27T04:21:06.583Z,1009.33
2022-07-27T04:24:14.861Z,1009.32
2022-07-27T04:27:22.547Z,1009.36
2022-07-27T04:30:30.506Z,1009.36
2022-07-27T04:33:38.833Z,1009.30
2022-07-27T04:36:46.858Z,1009.33
2022-07-27T04:39:54.836Z,1009.31
2022-07-27T04:43:03.035Z,1009.29
2022-07-27T04:46:15.109Z,1009.29
2022-07-27T04:49:13.408Z,1009.27
2022-07-27T04:52:26.418Z,1009.30
2022-07-27T04:55:24.938Z,1009.26
2022-07-27T04:58:32.810Z,1009.25
2022-07-27T05:01:40.782Z,1009.26
2022-07-27T05:04:49.055Z,1009.22
2022-07-27T05:07:56.554Z,1009.22
2022-07-27T05:11:04.965Z,1009.33
2022-07-27T05:14:13.319Z,1009.25
2022-07-27T05:17:20.805Z,1009.39
2022-07-27T05:20:29.204Z,1009.43
2022-07-27T05:23:37.434Z,1009.43
2022-07-27T05:26:44.890Z,1009.53
2022-07-27T05:29:53.042Z,1009.46
2022-07-27T05:33:00.539Z,1009.51
2022-07-27T05:36:08.706Z,1009.49
2022-07-27T05:39:17.342Z,1009.53
2022-07-27T05:42:25.354Z,1009.50
2022-07-27T05:45:33.211Z,1009.59
2022-07-27T05:48:40.894Z,1009.70
2022-07-27T05:51:49.653Z,1009.68
2022-07-27T05:54:57.927Z,1009.71
2022-07-27T05:58:05.734Z,1009.79
2022-07-27T06:01:14.052Z,1009.78
2022-07-27T06:04:22.122Z,1009.89
2022-07-27T06:07:30.072Z,1009.92
2022-07-27T06:10:38.354Z,1009.91
2022-07-27T06:13:45.943Z,1009.96
2022-07-27T06:16:54.325Z,1009.98
2022-07-27T06:20:02.725Z,1009.99
2022-07-27T06:23:10.254Z,1009.98
2022-07-27T06:26:18.698Z,1010.01
2022-07-27T06:29:26.703Z,1010.08
2022-07-27T06:32:34.110Z,1010.04
2022-07-27T06:35:43.128Z,1010.00
2022-07-27T06:38:51.665Z,1010.05
2022-07-27T06:42:00.024Z,1010.09
2022-07-27T06:45:08.374Z,1010.05
2022-07-27T06:48:16.126Z,1010.05
2022-07-27T06:51:24.112Z,1010.04
2022-07-27T06:54:32.607Z,1010.01
2022-07-27T06:57:40.130Z,1009.99
2022-07-27T07:00:48.202Z,1010.05
2022-07-27T07:03:56.387Z,1009.99
2022-07-27T07:07:07.262Z,1010.03
2022-07-27T07:10:15.161Z,1010.02
2022-07-27T07:13:23.105Z,1009.94
2022-07-27T07:16:31.373Z,1009.99
2022-07-27T07:19:38.924Z,1009.93
2022-07-27T07:22:47.179Z,1009.85
2022-07-27T07:25:55.531Z,1009.96
2022-07-27T07:29:03.065Z,1009.87
2022-07-27T07:32:11.601Z,1009.93
2022-07-27T07:35:11.518Z,1009.95
2022-07-27T07:38:19.389Z,1009.91
2022-07-27T07:41:27.812Z,1009.93
2022-07-27T07:44:35.722Z,1009.91
2022-07-27T07:47:43.627Z,1009.92
2022-07-27T07:50:53.410Z,1009.91
2022-07-27T07:54:01.586Z,1009.85
2022-07-27T07:57:09.338Z,1009.86
2022-07-27T08:00:17.109Z,1009.84
2022-07-27T08:03:25.303Z,1009.82
2022-07-27T08:06:33.181Z,1009.84
2022-07-27T08:09:41.001Z,1009.85
2022-07-27T08:12:49.411Z,1009.91
2022-07-27T08:15:57.596Z,1009.91
2022-07-27T08:19:05.285Z,1009.87
2022-07-27T08:22:13.294Z,1009.96
2022-07-27T08:25:20.969Z,1009.97
2022-07-27T08:28:32.192Z,1009.97
2022-07-27T08:31:52.289Z,1009.96
2022-07-27T08:34:38.414Z,1009.93
2022-07-27T08:37:46.559Z,1009.94
2022-07-27T08:40:54.401Z,1009.89
2022-07-27T08:44:02.315Z,1009.86
2022-07-27T08:47:10.501Z,1009.90
2022-07-27T08:50:18.455Z,1009.78
2022-07-27T08:53:26.367Z,1009.87
2022-07-27T08:56:31.807Z,1009.88
2022-07-27T08:59:40.029Z,1009.89
2022-07-27T09:02:47.608Z,1009.97
2022-07-27T09:05:55.897Z,1009.91
2022-07-27T09:09:04.231Z,1009.81
2022-07-27T09:12:11.829Z,1009.85
2022-07-27T09:15:20.194Z,1009.90
2022-07-27T09:18:28.445Z,1009.86
2022-07-27T09:21:35.915Z,1009.92
2022-07-27T09:24:47.222Z,1009.92
2022-07-27T09:27:45.760Z,1009.91
2022-07-27T09:30:53.880Z,1009.96
2022-07-27T09:34:01.950Z,1009.87
2022-07-27T09:37:09.441Z,1009.81
2022-07-27T09:40:22.559Z,1009.77
2022-07-27T09:46:27.241Z,1009.75
2022-07-27T09:49:35.066Z,1009.63
2022-07-27T09:52:43.029Z,1009.63
2022-07-27T09:55:53.342Z,1009.59
2022-07-27T09:58:54.183Z,1009.60
2022-07-27T10:02:02.560Z,1009.61
2022-07-27T10:05:10.706Z,1009.64
2022-07-27T10:08:18.915Z,1009.72
2022-07-27T10:11:27.443Z,1009.73
2022-07-27T10:14:34.874Z,1009.82
2022-07-27T10:17:44.148Z,1009.78
2022-07-27T10:20:52.495Z,1009.61
2022-07-27T10:23:59.908Z,1009.62
2022-07-27T10:27:08.116Z,1009.60
2022-07-27T10:30:17.566Z,1009.57
2022-07-27T10:33:21.463Z,1009.50
2022-07-27T10:36:29.949Z,1009.56
2022-07-27T10:39:38.063Z,1009.54
2022-07-27T10:42:50.360Z,1009.52
2022-07-27T10:46:01.359Z,1009.48
2022-07-27T10:48:56.165Z,1009.51
2022-07-27T10:52:03.938Z,1009.46
2022-07-27T10:55:11.868Z,1009.47
2022-07-27T10:58:20.300Z,1009.36
2022-07-27T11:01:28.238Z,1009.47
2022-07-27T11:04:36.118Z,1009.50
2022-07-27T11:07:46.377Z,1009.48
2022-07-27T11:10:49.484Z,1009.39
2022-07-27T11:13:57.763Z,1009.47
2022-07-27T11:20:11.024Z,1009.41
2022-07-27T11:26:27.119Z,1009.35
2022-07-27T11:29:34.963Z,1009.49
2022-07-27T11:32:37.694Z,1009.33
2022-07-27T11:35:45.299Z,1009.29
2022-07-27T11:38:53.954Z,1009.35
2022-07-27T11:42:08.680Z,1009.45
2022-07-27T11:45:07.000Z,1009.35
2022-07-27T11:48:15.080Z,1009.37
2022-07-27T11:51:22.920Z,1009.35
2022-07-27T11:54:30.787Z,1009.34
2022-07-27T11:57:38.654Z,1009.20
2022-07-27T12:00:47.076Z,1009.23
2022-07-27T12:03:55.026Z,1009.27
2022-07-27T12:07:02.765Z,1009.34
2022-07-27T12:10:11.089Z,1009.27
2022-07-27T12:13:18.604Z,1009.26
2022-07-27T12:16:26.890Z,1009.22
2022-07-27T12:19:35.102Z,1009.19
2022-07-27T12:22:42.556Z,1009.20
2022-07-27T12:25:50.888Z,1009.25
2022-07-27T12:28:59.277Z,1009.15
2022-07-27T12:32:06.773Z,1009.22
2022-07-27T12:35:14.980Z,1009.09
2022-07-27T12:39:17.637Z,1009.11
2022-07-27T12:42:46.597Z,1009.11
2022-07-27T12:45:47.965Z,1009.17
2022-07-27T12:48:55.813Z,1009.10
2022-07-27T12:52:04.338Z,1009.19
2022-07-27T12:55:15.460Z,1009.20
2022-07-27T12:58:13.525Z,1009.11
2022-07-27T13:01:20.938Z,1009.11
2022-07-27T13:04:29.315Z,1009.17
2022-07-27T13:07:37.094Z,1009.14
2022-07-27T13:10:44.968Z,1009.17
2022-07-27T13:13:53.173Z,1009.06
2022-07-27T13:17:01.136Z,1009.16
2022-07-27T13:20:09.162Z,1009.07
2022-07-27T13:23:17.173Z,1009.19
2022-07-27T13:26:25.204Z,1009.20
2022-07-27T13:29:25.115Z,1009.12
2022-07-27T13:32:33.670Z,1009.20
2022-07-27T13:35:41.305Z,1009.20
2022-07-27T13:38:49.931Z,1009.26
2022-07-27T13:41:58.221Z,1009.23
2022-07-27T13:45:11.312Z,1009.26
2022-07-27T13:48:09.333Z,1009.31
2022-07-27T13:51:17.420Z,1009.32
2022-07-27T13:54:25.928Z,1009.29
2022-07-27T13:57:34.786Z,1009.29
2022-07-27T14:00:43.227Z,1009.32
2022-07-27T14:03:51.350Z,1009.32
2022-07-27T14:07:00.037Z,1009.33
2022-07-27T14:10:08.270Z,1009.24
2022-07-27T14:13:16.705Z,1009.22
2022-07-27T14:16:25.053Z,1009.17
2022-07-27T14:19:33.425Z,1009.20
2022-07-27T14:22:42.197Z,1009.02
2022-07-27T14:25:50.105Z,1009.11
2022-07-27T14:28:58.997Z,1009.15
2022-07-27T14:32:07.891Z,1009.11
2022-07-27T14:35:15.633Z,1009.16
2022-07-27T14:38:26.957Z,1009.13
2022-07-27T14:41:27.601Z,1009.24
2022-07-27T14:44:36.169Z,1009.21
2022-07-27T14:47:44.344Z,1009.11
2022-07-27T14:50:52.546Z,1009.13
2022-07-27T14:54:01.338Z,1009.15
2022-07-27T14:57:09.348Z,1009.20
2022-07-27T15:00:17.680Z,1009.16
2022-07-27T15:03:26.129Z,1009.05
2022-07-27T15:06:38.840Z,1009.04
2022-07-27T15:09:37.063Z,1009.07
2022-07-27T15:12:45.543Z,1009.05
2022-07-27T15:15:54.196Z,1009.07
2022-07-27T15:19:02.374Z,1009.07
2022-07-27T15:22:11.752Z,1008.99
2022-07-27T15:25:19.654Z,1009.13
2022-07-27T15:28:28.218Z,1008.97
2022-07-27T15:31:36.093Z,1008.99
2022-07-27T15:34:44.013Z,1009.07
2022-07-27T15:37:53.896Z,1009.00
2022-07-27T15:41:01.911Z,1008.97
2022-07-27T15:44:09.949Z,1009.03
2022-07-27T15:47:18.057Z,1008.97
2022-07-27T15:50:26.216Z,1008.97
2022-07-27T15:53:34.600Z,1009.01
2022-07-27T15:56:42.141Z,1008.99
2022-07-27T15:59:50.251Z,1009.01
2022-07-27T16:02:57.994Z,1009.09
2022-07-27T16:06:06.316Z,1009.07
2022-07-27T16:09:14.804Z,1009.10
2022-07-27T16:12:23.417Z,1009.09
2022-07-27T16:15:30.851Z,1009.05
2022-07-27T16:18:39.469Z,1009.01
2022-07-27T16:21:54.924Z,1008.99
2022-07-27T16:24:52.621Z,1009.08
2022-07-27T16:28:01.000Z,1009.09
2022-07-27T16:31:08.564Z,1009.06
2022-07-27T16:34:17.266Z,1008.95
2022-07-27T16:37:24.693Z,1008.99
2022-07-27T16:40:32.763Z,1009.05
2022-07-27T16:43:40.777Z,1008.96
2022-07-27T16:46:49.036Z,1009.00
2022-07-27T16:49:56.989Z,1009.02
2022-07-27T16:53:05.762Z,1009.01
2022-07-27T16:56:13.712Z,1009.03
2022-07-27T16:59:21.153Z,1009.03
2022-07-27T17:02:29.523Z,1009.18
2022-07-27T17:05:37.475Z,1009.10
2022-07-27T17:08:45.503Z,1009.13
2022-07-27T17:11:53.747Z,1009.09
2022-07-27T17:15:03.335Z,1009.07
2022-07-27T17:18:11.860Z,1009.04
2022-07-27T17:21:19.813Z,1009.07
2022-07-27T17:24:27.792Z,1009.04
2022-07-27T17:27:36.045Z,1009.10
2022-07-27T17:30:44.733Z,1009.12
2022-07-27T17:33:53.167Z,1009.11
2022-07-27T17:37:00.973Z,1009.06
2022-07-27T17:40:09.169Z,1009.02
2022-07-27T17:43:17.950Z,1009.10
2022-07-27T17:46:25.709Z,1009.11
2022-07-27T17:49:34.457Z,1009.09
2022-07-27T17:52:44.324Z,1009.07
2022-07-27T17:55:52.104Z,1009.13
2022-07-27T17:59:14.288Z,1009.07
2022-07-27T18:02:06.939Z,1009.03
2022-07-27T18:05:15.117Z,1009.06
2022-07-27T18:08:23.718Z,1009.13
2022-07-27T18:11:31.556Z,1009.13
2022-07-27T18:14:41.021Z,1009.10
2022-07-27T18:17:50.081Z,1009.10
2022-07-27T18:20:57.694Z,1009.16
2022-07-27T18:24:06.465Z,1009.09
2022-07-27T18:27:06.655Z,1009.20
2022-07-27T18:30:14.824Z,1009.12
2022-07-27T18:33:23.006Z,1009.12
2022-07-27T18:36:30.707Z,1009.10
2022-07-27T18:39:38.682Z,1009.11
2022-07-27T18:42:46.146Z,1009.16
2022-07-27T18:45:53.947Z,1009.19
2022-07-27T18:49:02.773Z,1009.22
2022-07-27T18:52:10.433Z,1009.17
2022-07-27T18:55:18.666Z,1009.28
2022-07-27T18:58:26.487Z,1009.30
2022-07-27T19:01:34.424Z,1009.34
2022-07-27T19:04:42.769Z,1009.33
2022-07-27T19:07:50.203Z,1009.34
2022-07-27T19:10:57.861Z,1009.43
2022-07-27T19:14:05.264Z,1009.49
2022-07-27T19:17:15.002Z,1009.49
2022-07-27T19:20:23.335Z,1009.50
2022-07-27T19:23:30.764Z,1009.59
2022-07-27T19:26:38.774Z,1009.64
2022-07-27T19:29:47.007Z,1009.72
2022-07-27T19:32:54.816Z,1009.70
2022-07-27T19:36:02.657Z,1009.79
2022-07-27T19:39:11.055Z,1009.85
2022-07-27T19:42:19.031Z,1009.81
2022-07-27T19:45:26.311Z,1009.79
2022-07-27T19:48:33.747Z,1009.87
2022-07-27T19:51:41.585Z,1009.89
2022-07-27T19:54:49.445Z,1009.94
2022-07-27T19:57:57.019Z,1010.01
2022-07-27T20:01:04.799Z,1009.98
2022-07-27T20:04:07.158Z,1010.00
2022-07-27T20:07:15.562Z,1010.04
2022-07-27T20:10:23.503Z,1010.03
2022-07-27T20:13:31.090Z,1010.08
2022-07-27T20:16:39.479Z,1010.12
2022-07-27T20:19:47.305Z,1010.13
2022-07-27T20:22:55.339Z,1010.11
2022-07-27T20:26:03.763Z,1010.10
2022-07-27T20:29:11.603Z,1010.15
2022-07-27T20:32:20.222Z,1010.14
2022-07-27T20:35:36.610Z,1010.21
2022-07-27T20:38:33.067Z,1010.26
2022-07-27T20:41:41.280Z,1010.21
2022-07-27T20:44:49.803Z,1010.34
2022-07-27T20:47:57.295Z,1010.34
2022-07-27T20:51:05.491Z,1010.42
2022-07-27T20:54:13.003Z,1010.41
2022-07-27T20:57:21.121Z,1010.47
2022-07-27T21:00:29.461Z,1010.48
2022-07-27T21:03:37.455Z,1010.47
2022-07-27T21:06:45.087Z,1010.42
2022-07-27T21:09:52.679Z,1010.49
2022-07-27T21:13:01.517Z,1010.58
2022-07-27T21:16:09.379Z,1010.61
2022-07-27T21:19:17.499Z,1010.60
2022-07-27T21:22:25.838Z,1010.70
2022-07-27T21:25:33.793Z,1010.76
2022-07-27T21:28:41.663Z,1010.82
2022-07-27T21:31:50.323Z,1010.83
2022-07-27T21:34:57.820Z,1010.79
2022-07-27T21:38:06.254Z,1010.75
2022-07-27T21:41:14.743Z,1010.88
2022-07-27T21:44:22.228Z,1010.86
2022-07-27T21:47:30.361Z,1010.80
2022-07-27T21:50:38.097Z,1010.89
2022-07-27T21:53:46.138Z,1010.89
2022-07-27T21:56:53.787Z,1010.93
2022-07-27T22:00:01.870Z,1010.88
2022-07-27T22:03:09.592Z,1010.95
2022-07-27T22:06:17.529Z,1010.89
2022-07-27T22:09:25.480Z,1010.89
2022-07-27T22:12:33.336Z,1010.88
2022-07-27T22:14:43.405Z,1010.93
2022-07-27T22:17:33.963Z,1010.93
2022-07-27T22:20:41.496Z,1010.99
2022-07-27T22:23:49.920Z,1010.99
2022-07-27T22:26:57.436Z,1011.00
2022-07-27T22:30:04.956Z,1010.97
2022-07-27T22:33:13.376Z,1010.96
2022-07-27T22:36:21.340Z,1011.03
2022-07-27T22:39:29.252Z,1011.06
2022-07-27T22:42:37.662Z,1011.04
2022-07-27T22:45:45.621Z,1011.06
2022-07-27T22:48:53.561Z,1011.14
2022-07-27T22:52:01.754Z,1011.16
2022-07-27T22:55:09.827Z,1011.20
2022-07-27T22:58:17.845Z,1011.22
2022-07-27T23:01:45.796Z,1011.23
2022-07-27T23:04:31.239Z,1011.22
2022-07-27T23:07:39.035Z,1011.19
2022-07-27T23:10:46.975Z,1011.26
2022-07-27T23:13:55.119Z,1011.29
2022-07-27T23:17:03.101Z,1011.18
2022-07-27T23:20:10.928Z,1011.26
2022-07-27T23:23:19.445Z,1011.27
2022-07-27T23:26:27.838Z,1011.27
2022-07-27T23:29:35.969Z,1011.33
2022-07-27T23:32:44.057Z,1011.28
2022-07-27T23:35:51.542Z,1011.26
2022-07-27T23:38:59.928Z,1011.24
2022-07-27T23:42:07.880Z,1011.30
2022-07-27T23:45:15.939Z,1011.32
2022-07-27T23:48:25.103Z,1011.27
2022-07-27T23:51:33.490Z,1011.37
2022-07-27T23:54:41.079Z,1011.40
2022-07-27T23:57:49.395Z,1011.41
